Time;durP1;ratioP1;P1;durP2;ratioP2;P2;SDS_P1;SDS_P2;PMS_P1;PMS_P2;Temp;Humidity;BMP_temperature;BMP_pressure;BME280_temperature;BME280_humidity;BME280_pressure;Samples;Min_cycle;Max_cycle;Signal;HPM_P1;HPM_P2
2022/01/18 00:01:53;;;;;;;47.72;8.27;;;6.70;99.90;;;;;;5114729;27;20400;-61
2022/01/18 00:04:20;;;;;;;57.35;8.45;;;6.70;99.90;;;;;;5114556;28;20042;-61
2022/01/18 00:06:52;;;;;;;50.47;8.13;;;6.80;99.90;;;;;;5114271;28;20107;-61
2022/01/18 00:09:21;;;;;;;58.70;8.80;;;6.70;99.90;;;;;;5102754;28;20044;-60
2022/01/18 00:11:56;;;;;;;42.92;8.13;;;6.60;99.90;;;;;;5094489;28;20043;-61
2022/01/18 00:14:25;;;;;;;46.58;8.23;;;6.60;99.90;;;;;;5092804;28;20038;-61
2022/01/18 00:19:40;;;;;;;43.88;7.07;;;6.40;99.90;;;;;;5093680;28;20048;-61
2022/01/18 00:22:11;;;;;;;44.10;9.18;;;6.40;99.90;;;;;;5092434;28;20553;-61
2022/01/18 00:24:40;;;;;;;46.03;8.18;;;6.40;99.90;;;;;;5093721;28;20115;-61
2022/01/18 00:27:12;;;;;;;50.70;9.32;;;6.30;99.90;;;;;;5093762;28;20094;-61
2022/01/18 00:29:44;;;;;;;54.83;8.75;;;6.30;99.90;;;;;;5093967;28;20036;-61
2022/01/18 00:34:53;;;;;;;37.83;7.55;;;6.20;99.90;;;;;;5093554;28;20046;-60
2022/01/18 00:37:35;;;;;;;51.22;8.68;;;6.20;99.90;;;;;;5093614;28;20047;-59
2022/01/18 00:40:01;;;;;;;41.55;7.45;;;6.10;99.90;;;;;;5093563;28;20466;-60
2022/01/18 00:42:26;;;;;;;56.25;9.50;;;6.10;99.90;;;;;;5093194;28;20075;-61
2022/01/18 00:44:52;;;;;;;45.30;8.25;;;6.20;99.90;;;;;;5093611;28;20083;-60
2022/01/18 00:47:18;;;;;;;56.25;8.80;;;6.00;99.90;;;;;;5093377;28;20043;-61
2022/01/18 00:49:46;;;;;;;63.75;9.50;;;6.00;99.90;;;;;;5093285;28;20039;-61
2022/01/18 00:52:15;;;;;;;48.42;8.98;;;6.00;99.90;;;;;;5091202;28;20036;-61
2022/01/18 00:54:44;;;;;;;53.00;8.75;;;5.90;99.90;;;;;;5091787;28;20050;-60
2022/01/18 00:57:10;;;;;;;54.30;8.13;;;5.90;99.90;;;;;;5093031;28;20050;-61
2022/01/18 00:59:36;;;;;;;57.90;8.35;;;6.00;99.90;;;;;;5092846;28;20036;-60
2022/01/18 01:02:02;;;;;;;51.20;8.15;;;6.10;99.90;;;;;;5093234;28;20336;-60
2022/01/18 01:04:32;;;;;;;44.80;7.07;;;6.10;99.90;;;;;;5092990;28;20028;-61
2022/01/18 01:06:57;;;;;;;66.18;9.93;;;6.20;99.90;;;;;;5092759;28;20040;-61
2022/01/18 01:09:23;;;;;;;51.35;8.25;;;6.20;99.90;;;;;;5092823;28;20035;-61
2022/01/18 01:11:49;;;;;;;61.70;10.30;;;6.20;99.90;;;;;;5093054;28;20040;-60
2022/01/18 01:14:20;;;;;;;55.03;7.93;;;6.10;99.90;;;;;;5091298;28;20085;-61
2022/01/18 01:43:30;;;;;;;38.60;6.68;;;6.00;99.90;;;;;;5092457;28;20044;-62
2022/01/18 01:45:58;;;;;;;54.25;8.85;;;6.00;99.90;;;;;;5092209;28;20916;-61
2022/01/18 01:48:25;;;;;;;45.53;8.00;;;6.00;99.90;;;;;;5092347;28;20061;-61
2022/01/18 01:51:01;;;;;;;49.88;7.18;;;5.90;99.90;;;;;;5092326;28;20492;-61
2022/01/18 01:53:28;;;;;;;49.55;6.20;;;5.90;99.90;;;;;;5092263;28;20095;-61
2022/01/18 01:55:54;;;;;;;35.70;6.20;;;5.90;99.90;;;;;;5092282;28;20385;-60
2022/01/18 01:58:21;;;;;;;39.55;7.25;;;5.90;99.90;;;;;;5092236;28;20040;-61
2022/01/18 02:01:02;;;;;;;32.28;5.90;;;6.00;99.90;;;;;;5092209;28;20044;-61
2022/01/18 02:03:27;;;;;;;39.05;5.75;;;6.00;99.90;;;;;;5091792;28;20032;-61
2022/01/18 02:05:53;;;;;;;41.30;5.75;;;6.00;99.90;;;;;;5092181;28;20043;-61
2022/01/18 02:08:20;;;;;;;47.67;5.28;;;6.00;99.90;;;;;;5092133;28;20137;-61
2022/01/18 02:10:46;;;;;;;42.85;5.93;;;6.10;99.90;;;;;;5092055;28;20032;-61
2022/01/18 02:13:12;;;;;;;39.47;5.72;;;6.10;99.90;;;;;;5092045;28;20059;-61
2022/01/18 02:15:45;;;;;;;37.55;6.07;;;6.20;99.90;;;;;;5091890;28;20043;-61
2022/01/18 02:23:39;;;;;;;35.85;6.20;;;6.20;99.90;;;;;;5091931;28;20052;-61
2022/01/18 02:26:05;;;;;;;38.10;5.63;;;6.20;99.90;;;;;;5092022;28;20047;-62
2022/01/18 02:28:31;;;;;;;35.40;5.68;;;6.30;99.90;;;;;;5091784;28;20047;-61
2022/01/18 02:30:57;;;;;;;32.03;5.47;;;6.40;99.90;;;;;;5091905;28;20036;-61
2022/01/18 02:33:23;;;;;;;26.60;4.97;;;6.30;99.90;;;;;;5091770;28;20066;-62
2022/01/18 02:35:50;;;;;;;33.47;7.63;;;6.30;99.90;;;;;;5091917;28;20193;-61
2022/01/18 02:38:16;;;;;;;36.03;6.25;;;6.40;99.90;;;;;;5091842;28;20044;-61
2022/01/18 02:40:42;;;;;;;39.72;5.70;;;6.40;99.90;;;;;;5091826;28;20036;-61
2022/01/18 02:45:55;;;;;;;28.25;6.38;;;6.30;99.90;;;;;;5091879;28;20044;-61
2022/01/18 02:48:22;;;;;;;33.53;6.57;;;6.30;99.90;;;;;;5091651;28;20393;-61
2022/01/18 02:50:48;;;;;;;27.52;5.78;;;6.30;99.90;;;;;;5091611;28;20386;-61
2022/01/18 02:53:18;;;;;;;30.95;4.32;;;6.20;99.90;;;;;;5091602;28;20040;-61
2022/01/18 02:55:50;;;;;;;32.38;4.40;;;6.30;99.90;;;;;;5091524;28;20367;-61
2022/01/18 02:58:23;;;;;;;24.27;3.95;;;6.30;99.90;;;;;;5091737;28;20040;-61
2022/01/18 03:03:37;;;;;;;36.20;5.55;;;6.30;99.90;;;;;;5009227;28;20056;-60
2022/01/18 03:06:05;;;;;;;25.67;4.32;;;6.30;99.90;;;;;;5009324;28;20057;-61
2022/01/18 03:08:31;;;;;;;29.05;5.45;;;6.40;99.90;;;;;;5014019;28;20077;-61
2022/01/18 03:10:57;;;;;;;24.42;4.45;;;6.40;99.90;;;;;;5029147;28;20053;-60
2022/01/18 03:13:23;;;;;;;30.52;4.53;;;6.40;99.90;;;;;;5029251;28;20120;-60
2022/01/18 03:15:49;;;;;;;27.98;5.40;;;6.50;99.90;;;;;;5031587;28;20057;-60
2022/01/18 03:18:15;;;;;;;29.88;6.30;;;6.50;99.90;;;;;;5032382;28;20061;-60
2022/01/18 03:20:41;;;;;;;31.30;4.82;;;6.50;99.90;;;;;;5015816;28;20104;-61
2022/01/18 03:23:13;;;;;;;29.15;4.20;;;6.50;99.90;;;;;;5032807;28;20057;-60
2022/01/18 03:25:51;;;;;;;23.85;4.43;;;6.50;99.90;;;;;;5032662;28;20073;-61
2022/01/18 03:28:18;;;;;;;24.67;4.53;;;6.60;99.90;;;;;;5032493;28;20107;-61
2022/01/18 03:30:47;;;;;;;27.90;4.35;;;6.60;99.90;;;;;;5032515;28;20076;-61
2022/01/18 03:33:16;;;;;;;22.67;4.13;;;6.60;99.90;;;;;;5032341;28;20041;-61
2022/01/18 03:35:42;;;;;;;34.88;4.35;;;6.60;99.90;;;;;;5032332;28;20042;-60
2022/01/18 03:38:09;;;;;;;23.30;3.90;;;6.60;99.90;;;;;;5015713;28;20049;-61
2022/01/18 03:40:35;;;;;;;20.50;4.55;;;6.70;99.90;;;;;;5061288;28;20059;-61
2022/01/18 03:43:02;;;;;;;17.85;3.28;;;6.70;99.90;;;;;;5094834;28;20047;-61
2022/01/18 03:45:32;;;;;;;36.40;4.43;;;6.70;99.90;;;;;;5094588;28;20093;-61
2022/01/18 03:48:03;;;;;;;23.42;4.60;;;6.60;99.90;;;;;;5094252;28;20067;-61
2022/01/18 03:50:29;;;;;;;20.55;3.38;;;6.60;99.90;;;;;;5094395;28;20047;-61
2022/01/18 03:52:55;;;;;;;19.60;3.90;;;6.70;99.90;;;;;;5094495;28;20035;-61
2022/01/18 03:55:22;;;;;;;29.58;2.55;;;6.70;99.90;;;;;;5107265;28;20036;-61
2022/01/18 03:57:49;;;;;;;21.25;3.17;;;6.70;99.90;;;;;;5114939;28;20093;-61
2022/01/18 04:00:17;;;;;;;18.75;3.55;;;6.70;99.90;;;;;;5114461;28;20075;-61
2022/01/18 04:02:43;;;;;;;21.50;3.67;;;6.70;99.90;;;;;;5114799;28;20039;-61
2022/01/18 04:05:10;;;;;;;18.52;3.15;;;6.70;99.90;;;;;;5114842;28;20039;-61
2022/01/18 04:07:35;;;;;;;19.20;2.60;;;6.70;99.90;;;;;;5114355;28;20036;-61
2022/01/18 04:10:02;;;;;;;20.80;2.67;;;6.70;99.90;;;;;;5114175;28;20528;-61
2022/01/18 04:12:28;;;;;;;21.85;3.00;;;6.70;99.90;;;;;;5114450;28;20035;-62
2022/01/18 04:14:54;;;;;;;17.85;3.85;;;6.70;99.90;;;;;;5114374;28;20108;-61
2022/01/18 04:26:52;;;;;;;20.02;2.90;;;6.80;99.90;;;;;;5051263;28;19971;-62
2022/01/18 04:28:46;;;;;;;16.95;3.03;;;6.80;99.90;;;;;;5051140;28;20057;-62
2022/01/18 04:31:11;;;;;;;21.20;2.83;;;6.80;99.90;;;;;;5051150;28;20162;-62
2022/01/18 04:33:39;;;;;;;13.07;2.47;;;6.80;99.90;;;;;;5050986;28;20398;-61
2022/01/18 04:36:06;;;;;;;15.30;2.05;;;6.80;99.90;;;;;;5051123;28;20039;-62
2022/01/18 04:38:32;;;;;;;15.25;2.35;;;6.80;99.90;;;;;;5051098;28;20049;-62
2022/01/18 04:41:07;;;;;;;20.52;4.00;;;6.80;99.90;;;;;;5051083;28;20111;-62
2022/01/18 04:44:11;;;;;;;13.60;2.38;;;6.80;99.90;;;;;;5050926;28;20535;-62
2022/01/18 04:49:20;;;;;;;19.17;3.20;;;6.80;99.90;;;;;;5051100;28;20053;-62
2022/01/18 04:51:46;;;;;;;18.95;2.80;;;6.80;99.90;;;;;;5050930;28;20041;-62
2022/01/18 04:54:13;;;;;;;16.58;2.95;;;6.80;99.90;;;;;;5050816;28;20049;-62
2022/01/18 04:59:10;;;;;;;13.77;2.95;;;6.80;99.90;;;;;;5077843;28;20036;-62
2022/01/18 05:01:38;;;;;;;16.67;3.17;;;6.80;99.90;;;;;;5113503;28;20043;-62
2022/01/18 05:04:04;;;;;;;17.48;2.80;;;6.80;99.90;;;;;;5113291;27;20386;-62
2022/01/18 05:06:30;;;;;;;13.30;2.72;;;6.80;99.90;;;;;;5113400;28;20063;-62
2022/01/18 05:08:57;;;;;;;13.93;3.15;;;6.80;99.90;;;;;;5107320;28;20733;-62
2022/01/18 05:11:25;;;;;;;14.68;2.40;;;6.70;99.90;;;;;;5093002;28;20036;-62
2022/01/18 05:16:41;;;;;;;11.63;2.20;;;6.80;99.90;;;;;;5092618;28;20486;-61
2022/01/18 05:19:24;;;;;;;21.45;2.88;;;6.80;99.90;;;;;;5092658;28;20056;-62
2022/01/18 05:24:24;;;;;;;11.32;1.98;;;6.70;99.90;;;;;;5092750;28;20075;-62
2022/01/18 05:26:50;;;;;;;16.95;3.15;;;6.70;99.90;;;;;;5092707;28;20047;-62
2022/01/18 05:29:16;;;;;;;15.93;3.25;;;6.80;99.90;;;;;;5092788;28;20035;-62
2022/01/18 05:31:42;;;;;;;18.35;3.72;;;6.80;99.90;;;;;;5092574;28;20470;-62
2022/01/18 05:34:08;;;;;;;9.13;2.15;;;6.80;99.90;;;;;;5092640;28;20047;-62
2022/01/18 05:36:33;;;;;;;11.85;2.70;;;6.70;99.90;;;;;;5091076;28;20044;-62
2022/01/18 05:38:59;;;;;;;11.60;2.67;;;6.70;99.90;;;;;;5092139;28;20050;-62
2022/01/18 05:41:24;;;;;;;16.15;2.78;;;6.70;99.90;;;;;;5092489;28;20401;-62
2022/01/18 05:43:50;;;;;;;15.27;2.30;;;6.70;99.90;;;;;;5092323;28;20115;-62
2022/01/18 05:46:16;;;;;;;14.30;2.72;;;6.70;99.90;;;;;;5092183;28;20040;-62
2022/01/18 05:48:42;;;;;;;11.57;2.47;;;6.70;99.90;;;;;;5092067;28;20113;-62
2022/01/18 05:51:08;;;;;;;14.82;2.40;;;6.70;99.90;;;;;;5092235;28;20409;-62
2022/01/18 05:53:35;;;;;;;15.80;2.42;;;6.70;99.90;;;;;;5092355;28;20086;-62
2022/01/18 05:56:02;;;;;;;13.15;2.30;;;6.70;99.90;;;;;;5092190;28;20128;-62
2022/01/18 05:58:28;;;;;;;9.20;2.58;;;6.70;99.90;;;;;;5092046;28;20067;-62
2022/01/18 06:00:55;;;;;;;12.10;2.50;;;6.70;99.90;;;;;;5091920;28;20498;-62
2022/01/18 06:03:33;;;;;;;13.65;2.70;;;6.70;99.90;;;;;;5091918;28;20115;-62
2022/01/18 06:08:43;;;;;;;15.32;2.50;;;6.70;99.90;;;;;;5099451;28;20043;-62
2022/01/18 06:11:09;;;;;;;13.80;2.13;;;6.70;99.90;;;;;;5111639;28;20039;-62
2022/01/18 06:13:35;;;;;;;12.05;2.28;;;6.80;99.90;;;;;;5112390;28;20122;-62
2022/01/18 06:16:02;;;;;;;15.35;2.42;;;6.70;99.90;;;;;;5112266;28;20106;-62
2022/01/18 06:18:27;;;;;;;10.43;2.20;;;6.80;99.90;;;;;;5112033;28;20054;-62
2022/01/18 06:20:53;;;;;;;15.88;2.78;;;6.80;99.90;;;;;;5112199;28;20044;-62
2022/01/18 06:23:20;;;;;;;13.50;2.10;;;6.70;99.90;;;;;;5112084;28;20040;-62
2022/01/18 06:25:45;;;;;;;15.07;2.78;;;6.70;99.90;;;;;;5112171;28;20035;-62
2022/01/18 06:28:11;;;;;;;11.30;2.20;;;6.70;99.90;;;;;;5110370;28;20048;-62
2022/01/18 06:30:37;;;;;;;15.20;3.40;;;6.70;99.90;;;;;;5112325;28;20377;-62
2022/01/18 06:33:02;;;;;;;25.52;3.17;;;6.70;99.90;;;;;;5110860;28;20482;-62
2022/01/18 06:35:28;;;;;;;17.05;3.17;;;6.70;99.90;;;;;;5111114;28;20087;-62
2022/01/18 06:37:54;;;;;;;16.40;3.03;;;6.60;99.90;;;;;;5112048;28;20530;-62
2022/01/18 06:40:20;;;;;;;16.55;3.47;;;6.60;99.90;;;;;;5111888;28;20047;-62
2022/01/18 06:42:45;;;;;;;18.23;2.97;;;6.60;99.90;;;;;;5112047;28;20405;-62
2022/01/18 06:45:11;;;;;;;14.73;2.88;;;6.60;99.90;;;;;;5112174;28;20031;-62
2022/01/18 06:47:38;;;;;;;19.52;3.03;;;6.60;99.90;;;;;;5112174;28;20032;-62
2022/01/18 06:50:09;;;;;;;17.35;4.18;;;6.60;99.90;;;;;;5113722;28;20036;-62
2022/01/18 06:52:34;;;;;;;12.93;3.45;;;6.60;99.90;;;;;;5114719;28;20500;-62
2022/01/18 06:55:01;;;;;;;22.42;3.92;;;6.60;99.90;;;;;;5116012;28;20035;-62
2022/01/18 06:57:28;;;;;;;12.35;3.00;;;6.70;99.90;;;;;;5115863;28;20044;-62
2022/01/18 06:59:53;;;;;;;15.68;3.10;;;6.60;99.90;;;;;;5114886;28;20124;-62
2022/01/18 07:02:19;;;;;;;21.00;3.67;;;6.60;99.90;;;;;;5110967;28;20145;-62
2022/01/18 07:04:45;;;;;;;14.43;3.38;;;6.70;99.90;;;;;;5115104;28;20140;-62
2022/01/18 07:07:10;;;;;;;17.73;3.97;;;6.60;99.90;;;;;;5113837;28;20050;-62
2022/01/18 07:09:36;;;;;;;15.15;3.72;;;6.60;99.90;;;;;;5114093;28;20423;-62
2022/01/18 07:12:08;;;;;;;12.30;3.97;;;6.60;99.90;;;;;;5106823;28;20504;-62
2022/01/18 07:14:34;;;;;;;15.32;3.88;;;6.60;99.90;;;;;;5099926;28;20044;-62
2022/01/18 07:16:59;;;;;;;15.80;3.47;;;6.60;99.90;;;;;;5100213;28;20046;-62
2022/01/18 07:19:25;;;;;;;14.35;3.10;;;6.50;99.90;;;;;;5105011;28;20083;-62
2022/01/18 07:21:50;;;;;;;17.80;4.10;;;6.50;99.90;;;;;;5106498;28;20107;-62
2022/01/18 07:24:18;;;;;;;18.33;4.18;;;6.50;99.90;;;;;;5112552;28;20088;-62
2022/01/18 07:26:46;;;;;;;13.13;3.50;;;6.50;99.90;;;;;;5114564;28;20051;-62
2022/01/18 07:29:13;;;;;;;14.23;4.07;;;6.50;99.90;;;;;;5112516;28;20061;-62
2022/01/18 07:31:39;;;;;;;13.65;3.33;;;6.50;99.90;;;;;;5102951;28;20036;-62
2022/01/18 07:34:04;;;;;;;15.45;3.60;;;6.50;99.90;;;;;;5112936;28;20092;-63
2022/01/18 07:36:30;;;;;;;14.85;3.53;;;6.60;99.90;;;;;;5114775;28;20035;-63
2022/01/18 07:38:56;;;;;;;18.60;4.65;;;6.60;99.90;;;;;;5114601;28;20112;-63
2022/01/18 07:41:22;;;;;;;17.35;3.58;;;6.60;99.90;;;;;;5110708;28;20104;-63
2022/01/18 07:43:47;;;;;;;19.48;3.78;;;6.50;99.90;;;;;;5114619;28;20092;-63
2022/01/18 07:46:13;;;;;;;16.73;3.80;;;6.50;99.90;;;;;;5114329;28;20032;-63
2022/01/18 07:48:39;;;;;;;13.13;3.58;;;6.50;99.90;;;;;;5110585;28;20112;-63
2022/01/18 07:51:04;;;;;;;12.90;3.15;;;6.50;99.90;;;;;;5114126;28;20072;-63
2022/01/18 07:53:30;;;;;;;14.48;4.03;;;6.40;99.90;;;;;;5114667;28;20122;-63
2022/01/18 07:55:55;;;;;;;11.68;3.42;;;6.40;99.90;;;;;;5113532;28;20059;-63
2022/01/18 07:58:21;;;;;;;14.95;3.53;;;6.40;99.90;;;;;;5109193;28;20039;-63
2022/01/18 08:00:47;;;;;;;11.93;3.30;;;6.40;99.90;;;;;;5108912;28;20154;-63
2022/01/18 08:03:13;;;;;;;13.55;3.50;;;6.40;99.90;;;;;;5102284;28;20047;-63
2022/01/18 08:05:39;;;;;;;18.13;3.85;;;6.30;99.90;;;;;;5095072;28;20032;-63
2022/01/18 08:08:05;;;;;;;18.25;3.70;;;6.30;99.90;;;;;;5091753;28;20054;-63
2022/01/18 08:10:32;;;;;;;10.98;3.25;;;6.30;99.90;;;;;;5093104;28;20123;-63
2022/01/18 08:13:01;;;;;;;20.60;3.83;;;6.30;99.90;;;;;;5094069;28;20092;-63
2022/01/18 08:15:37;;;;;;;15.13;4.15;;;6.30;99.90;;;;;;5093759;28;20486;-63
2022/01/18 08:18:05;;;;;;;12.55;3.72;;;6.30;99.90;;;;;;5093536;28;20067;-63
2022/01/18 08:20:31;;;;;;;9.90;3.50;;;6.30;99.90;;;;;;5093664;28;20044;-63
2022/01/18 08:22:56;;;;;;;17.15;3.95;;;6.20;99.90;;;;;;5093479;28;20539;-63
2022/01/18 08:25:23;;;;;;;9.80;4.15;;;6.20;99.90;;;;;;5093454;28;20432;-63
2022/01/18 08:27:50;;;;;;;14.98;3.83;;;6.10;99.90;;;;;;5093508;28;20036;-63
2022/01/18 08:30:20;;;;;;;10.07;3.92;;;6.10;99.90;;;;;;5093476;28;20035;-63
2022/01/18 08:32:49;;;;;;;16.90;3.65;;;6.10;99.90;;;;;;5093619;28;20056;-63
2022/01/18 08:35:19;;;;;;;22.42;3.88;;;6.10;99.90;;;;;;5093323;28;20497;-63
2022/01/18 08:37:46;;;;;;;12.15;3.10;;;6.10;99.90;;;;;;5093413;28;20043;-63
2022/01/18 08:40:12;;;;;;;16.27;5.03;;;6.20;99.90;;;;;;5093488;28;20119;-63
2022/01/18 08:42:38;;;;;;;15.35;4.13;;;6.20;99.90;;;;;;5093266;28;20123;-63
2022/01/18 08:45:04;;;;;;;14.38;4.20;;;6.20;99.90;;;;;;5093182;28;20062;-63
2022/01/18 08:47:30;;;;;;;16.10;3.50;;;6.20;99.90;;;;;;5093039;28;20044;-63
2022/01/18 08:49:56;;;;;;;16.27;3.60;;;6.30;99.90;;;;;;5098879;28;20046;-63
2022/01/18 08:52:21;;;;;;;14.48;3.70;;;6.30;99.90;;;;;;5097562;28;20366;-63
2022/01/18 08:54:47;;;;;;;17.50;3.35;;;6.30;99.90;;;;;;5092947;28;20040;-63
2022/01/18 08:57:14;;;;;;;12.50;3.63;;;6.30;99.90;;;;;;5092992;28;20040;-63
2022/01/18 08:59:42;;;;;;;14.32;4.88;;;6.30;99.90;;;;;;5092829;28;20036;-63
2022/01/18 09:02:09;;;;;;;14.73;3.65;;;6.40;99.90;;;;;;5092950;28;20032;-63
2022/01/18 09:04:35;;;;;;;16.33;3.35;;;6.40;99.90;;;;;;5092832;28;20075;-63
2022/01/18 09:07:07;;;;;;;14.18;3.83;;;6.40;99.90;;;;;;5092649;28;20474;-63
2022/01/18 09:09:35;;;;;;;16.17;4.38;;;6.50;99.90;;;;;;5092946;28;20040;-63
2022/01/18 09:12:01;;;;;;;13.55;3.95;;;6.50;99.90;;;;;;5092146;28;20051;-63
2022/01/18 09:14:26;;;;;;;22.40;3.72;;;6.50;99.90;;;;;;5092457;28;20032;-63
2022/01/18 09:16:52;;;;;;;19.63;3.60;;;6.50;99.90;;;;;;5092730;28;20419;-63
2022/01/18 09:19:18;;;;;;;16.77;3.25;;;6.50;99.90;;;;;;5092505;28;20059;-63
2022/01/18 09:21:47;;;;;;;9.68;3.33;;;6.60;99.90;;;;;;5092666;28;20077;-63
2022/01/18 09:24:13;;;;;;;;;;;6.60;99.90;;;;;;5093005;28;20062;-63
2022/01/18 09:26:39;;;;;;;16.60;3.50;;;6.70;99.90;;;;;;5092551;28;20417;-63
2022/01/18 09:29:09;;;;;;;17.73;4.30;;;6.80;99.90;;;;;;5092118;28;20036;-63
2022/01/18 09:31:38;;;;;;;14.27;3.75;;;6.80;99.90;;;;;;5092794;28;20048;-63
2022/01/18 09:34:05;;;;;;;16.00;3.63;;;6.80;99.90;;;;;;5092394;28;20039;-63
2022/01/18 09:36:31;;;;;;;16.40;4.22;;;6.80;99.90;;;;;;5092278;28;20040;-63
2022/01/18 09:38:58;;;;;;;17.73;5.47;;;6.90;99.90;;;;;;5092076;28;20154;-64
2022/01/18 09:41:31;;;;;;;18.58;4.95;;;6.90;99.90;;;;;;5092450;28;20040;-64
2022/01/18 09:43:57;;;;;;;16.67;4.70;;;6.90;99.90;;;;;;5092211;28;20136;-63
2022/01/18 09:46:27;;;;;;;22.60;5.22;;;6.90;99.90;;;;;;5092007;28;20040;-63
2022/01/18 09:48:54;;;;;;;20.80;6.60;;;6.90;99.90;;;;;;5092168;28;20040;-63
2022/01/18 09:51:20;;;;;;;13.98;5.30;;;6.90;99.90;;;;;;5092145;28;20035;-64
2022/01/18 09:53:46;;;;;;;26.85;6.28;;;7.00;99.90;;;;;;5092094;28;20047;-64
2022/01/18 09:56:12;;;;;;;19.75;5.82;;;7.00;99.90;;;;;;5092017;28;20028;-63
2022/01/18 09:58:38;;;;;;;21.00;6.18;;;7.00;99.90;;;;;;5091757;28;20050;-64
2022/01/18 10:01:04;;;;;;;16.98;5.78;;;7.20;99.90;;;;;;5095790;28;20031;-63
2022/01/18 10:03:32;;;;;;;20.38;6.30;;;7.10;99.90;;;;;;5106406;28;20039;-64
2022/01/18 10:05:59;;;;;;;18.42;6.57;;;7.10;99.90;;;;;;5112083;28;20505;-64
2022/01/18 10:08:25;;;;;;;21.15;5.70;;;7.20;99.90;;;;;;5109883;28;20044;-63
2022/01/18 10:11:02;;;;;;;22.02;5.35;;;7.30;99.90;;;;;;5109449;28;20564;-63
2022/01/18 10:13:27;;;;;;;15.85;5.57;;;7.30;99.90;;;;;;5110848;28;20032;-64
2022/01/18 10:16:12;;;;;;;18.35;5.88;;;7.40;99.90;;;;;;5111636;28;20078;-63
2022/01/18 10:18:43;;;;;;;17.08;5.13;;;7.40;99.90;;;;;;5111841;28;20058;-64
2022/01/18 10:21:09;;;;;;;13.68;4.03;;;7.50;99.90;;;;;;5112278;28;20134;-63
2022/01/18 10:23:36;;;;;;;11.63;3.90;;;7.50;99.90;;;;;;5113115;28;20039;-63
2022/01/18 10:26:17;;;;;;;14.95;4.18;;;7.50;99.90;;;;;;5116862;28;20039;-63
2022/01/18 10:28:43;;;;;;;12.30;3.13;;;7.50;99.90;;;;;;5116479;28;20043;-63
2022/01/18 10:31:36;;;;;;;20.63;3.33;;;7.50;99.90;;;;;;5109236;28;20053;-63
2022/01/18 10:35:04;;;;;;;14.10;3.30;;;7.50;99.90;;;;;;5111468;28;20092;-63
2022/01/18 10:37:12;;;;;;;12.07;3.78;;;7.40;99.90;;;;;;5110799;28;20035;-63
2022/01/18 10:39:37;;;;;;;14.18;5.07;;;7.50;99.90;;;;;;5112975;28;20412;-63
2022/01/18 10:42:14;;;;;;;13.75;3.53;;;7.50;99.90;;;;;;5113485;28;20036;-63
2022/01/18 10:44:40;;;;;;;13.15;3.58;;;7.60;99.90;;;;;;5114142;28;20039;-63
2022/01/18 10:47:06;;;;;;;17.67;4.22;;;7.50;99.90;;;;;;5114298;28;20036;-63
2022/01/18 10:49:40;;;;;;;14.52;4.85;;;7.50;99.90;;;;;;5111458;28;20469;-63
2022/01/18 10:52:12;;;;;;;13.88;4.57;;;7.50;99.90;;;;;;5111849;28;20420;-63
2022/01/18 10:54:47;;;;;;;17.30;4.05;;;7.50;99.90;;;;;;5115375;28;20107;-63
2022/01/18 10:57:18;;;;;;;12.98;4.65;;;7.40;99.90;;;;;;5113907;28;20492;-63
2022/01/18 10:59:44;;;;;;;13.73;4.35;;;7.30;99.90;;;;;;5110814;28;20111;-63
2022/01/18 11:02:10;;;;;;;14.57;4.40;;;7.30;99.90;;;;;;5112239;28;20067;-63
2022/01/18 11:04:38;;;;;;;14.55;3.72;;;7.40;99.90;;;;;;5095754;28;20486;-64
2022/01/18 11:07:04;;;;;;;14.13;3.38;;;7.30;99.90;;;;;;5095210;28;20147;-63
2022/01/18 11:09:31;;;;;;;11.65;4.10;;;7.40;99.90;;;;;;5094948;28;20452;-64
2022/01/18 11:11:57;;;;;;;17.13;3.13;;;7.40;99.90;;;;;;5094984;28;20097;-64
2022/01/18 11:14:25;;;;;;;8.73;2.75;;;7.50;99.90;;;;;;5094875;28;20040;-63
2022/01/18 11:16:52;;;;;;;13.10;3.50;;;7.50;99.90;;;;;;5095033;28;20114;-63
2022/01/18 11:21:50;;;;;;;13.50;3.13;;;7.50;99.90;;;;;;5106787;28;20043;-63
2022/01/18 11:24:17;;;;;;;12.45;3.17;;;7.60;99.90;;;;;;5113304;28;20027;-64
2022/01/18 11:26:47;;;;;;;10.38;3.13;;;7.60;99.90;;;;;;5114731;28;20039;-63
2022/01/18 11:29:16;;;;;;;8.57;3.15;;;7.50;99.90;;;;;;5112140;28;20044;-63
2022/01/18 11:31:49;;;;;;;7.00;2.38;;;7.50;99.90;;;;;;5114626;28;20039;-63
2022/01/18 11:34:36;;;;;;;9.23;2.25;;;7.50;99.90;;;;;;5114945;28;20465;-63
2022/01/18 11:37:34;;;;;;;11.85;2.65;;;7.50;99.90;;;;;;5099373;28;20478;-63
2022/01/18 11:40:05;;;;;;;12.20;2.50;;;7.40;99.90;;;;;;5095514;28;20501;-64
2022/01/18 11:42:46;;;;;;;10.50;3.08;;;7.40;99.90;;;;;;5111930;28;20071;-50
2022/01/18 11:45:35;;;;;;;6.38;2.50;;;7.40;99.90;;;;;;5115373;28;20505;-47
2022/01/18 11:48:14;;;;;;;12.23;2.88;;;7.40;99.90;;;;;;5107284;28;20489;-49
2022/01/18 11:50:44;;;;;;;12.43;4.20;;;7.40;99.90;;;;;;5094565;28;20032;-49
2022/01/18 11:53:28;;;;;;;14.73;3.45;;;7.40;99.90;;;;;;5092744;28;20489;-49
2022/01/18 11:55:59;;;;;;;8.80;2.90;;;7.40;99.90;;;;;;5093124;28;20470;-51
2022/01/18 11:58:26;;;;;;;16.23;4.07;;;7.40;99.90;;;;;;5094427;28;20039;-51
2022/01/18 12:00:58;;;;;;;13.88;3.67;;;7.30;99.90;;;;;;5094492;28;20036;-51
2022/01/18 12:03:32;;;;;;;10.13;3.45;;;7.30;99.90;;;;;;5094027;28;20478;-53
2022/01/18 12:06:02;;;;;;;11.95;3.45;;;7.30;99.90;;;;;;5094254;28;20047;-51
2022/01/18 12:08:34;;;;;;;12.70;3.75;;;7.20;99.90;;;;;;5093736;28;20086;-49
2022/01/18 12:11:03;;;;;;;13.55;3.53;;;7.20;99.90;;;;;;5093921;28;20555;-52
2022/01/18 12:13:33;;;;;;;15.18;4.13;;;7.20;99.90;;;;;;5094114;28;20071;-53
2022/01/18 12:16:05;;;;;;;14.57;4.03;;;7.30;99.90;;;;;;5093918;28;20040;-51
2022/01/18 12:18:31;;;;;;;16.40;4.85;;;7.30;99.90;;;;;;5093276;28;20143;-50
2022/01/18 12:20:59;;;;;;;16.67;4.22;;;7.30;99.90;;;;;;5092181;28;20052;-49
2022/01/18 12:23:40;;;;;;;11.80;4.13;;;7.30;99.90;;;;;;5093611;28;20048;-50
2022/01/18 12:26:28;;;;;;;12.05;4.40;;;7.30;99.90;;;;;;5093858;28;20480;-50
2022/01/18 12:29:21;;;;;;;9.90;4.53;;;7.30;99.90;;;;;;5093710;28;20044;-51
2022/01/18 12:37:11;;;;;;;11.35;5.07;;;7.20;99.90;;;;;;5093498;28;20142;-50
2022/01/18 12:45:22;;;;;;;19.00;6.45;;;7.20;99.90;;;;;;5030842;28;20045;-52
2022/01/18 12:47:56;;;;;;;18.05;5.30;;;7.20;99.90;;;;;;5029849;28;20056;-51
2022/01/18 12:50:24;;;;;;;22.17;6.47;;;7.20;99.90;;;;;;5030700;28;20167;-51
2022/01/18 12:52:55;;;;;;;22.05;6.53;;;7.20;99.90;;;;;;5030849;28;20037;-51
2022/01/18 12:55:30;;;;;;;17.27;4.82;;;7.10;99.90;;;;;;5030622;28;20045;-49
2022/01/18 12:58:06;;;;;;;15.63;5.28;;;7.20;99.90;;;;;;5030970;28;20526;-50
2022/01/18 13:00:40;;;;;;;13.77;5.45;;;7.20;99.90;;;;;;5030698;28;20127;-52
2022/01/18 13:03:06;;;;;;;15.57;5.22;;;7.20;99.90;;;;;;5030458;28;20053;-48
2022/01/18 13:05:43;;;;;;;15.38;5.93;;;7.20;99.90;;;;;;5030496;28;20034;-51
2022/01/18 13:08:11;;;;;;;23.58;5.88;;;7.20;99.90;;;;;;5030336;28;20125;-49
2022/01/18 13:10:38;;;;;;;11.77;5.28;;;7.30;99.90;;;;;;5030347;28;20041;-48
2022/01/18 13:13:05;;;;;;;19.10;6.25;;;7.30;99.90;;;;;;5030349;28;20049;-51
2022/01/18 13:16:05;;;;;;;17.98;6.10;;;7.30;99.90;;;;;;5030157;28;20060;-54
2022/01/18 13:26:58;;;;;;;15.82;6.63;;;7.50;99.90;;;;;;5052002;28;20059;-47
2022/01/18 13:29:28;;;;;;;17.23;6.72;;;7.50;99.90;;;;;;5052355;28;20052;-52
2022/01/18 13:32:02;;;;;;;;;;;7.50;99.90;;;;;;5052760;28;20538;-47
2022/01/18 13:34:31;;;;;;;19.20;5.88;;;7.50;99.90;;;;;;5052176;28;19916;-48
2022/01/18 13:36:57;;;;;;;18.60;6.57;;;7.50;99.90;;;;;;5052179;28;20044;-52
2022/01/18 13:39:37;;;;;;;15.38;5.80;;;7.50;99.90;;;;;;5052089;28;20337;-51
2022/01/18 13:42:03;;;;;;;;;;;7.50;99.90;;;;;;5052868;28;20366;-48
2022/01/18 13:44:29;;;;;;;18.65;5.75;;;7.50;99.90;;;;;;5052434;28;19921;-48
2022/01/18 13:47:10;;;;;;;17.98;6.97;;;7.40;99.90;;;;;;5052229;28;20060;-53
2022/01/18 13:49:36;;;;;;;18.02;7.10;;;7.50;99.90;;;;;;5051880;28;20033;-48
2022/01/18 13:52:06;;;;;;;16.33;7.55;;;7.60;99.90;;;;;;5050148;28;20420;-52
2022/01/18 13:54:52;;;;;;;19.52;7.75;;;7.60;99.90;;;;;;5051945;28;20051;-53
2022/01/18 13:57:22;;;;;;;18.35;6.47;;;7.60;99.90;;;;;;5051719;28;20076;-52
2022/01/18 13:59:49;;;;;;;19.48;6.40;;;7.60;99.90;;;;;;5051614;28;20061;-51
2022/01/18 14:02:22;;;;;;;17.25;6.80;;;7.60;99.90;;;;;;5051610;28;20089;-48
2022/01/18 14:05:06;;;;;;;21.27;7.30;;;7.50;99.90;;;;;;5052110;28;20047;-51
2022/01/18 14:07:32;;;;;;;18.60;6.15;;;7.60;99.90;;;;;;5051724;28;20033;-50
2022/01/18 14:09:58;;;;;;;16.67;6.43;;;7.50;99.90;;;;;;5051716;28;20044;-53
2022/01/18 14:12:29;;;;;;;17.52;6.47;;;7.50;99.90;;;;;;5051685;28;20040;-50
2022/01/18 14:14:55;;;;;;;19.77;7.38;;;7.50;99.90;;;;;;5051714;28;20041;-52
2022/01/18 14:17:21;;;;;;;20.00;6.90;;;7.40;99.90;;;;;;5051702;28;20040;-49
2022/01/18 14:19:51;;;;;;;22.13;7.18;;;7.40;99.90;;;;;;5078385;28;20125;-50
2022/01/18 14:22:18;;;;;;;21.03;6.83;;;7.30;99.90;;;;;;5090836;28;20124;-53
2022/01/18 14:24:48;;;;;;;18.52;6.30;;;7.30;99.90;;;;;;5092123;28;20051;-49